createdAt,value
2023-05-03T00:03:23.814Z,4.15
2023-05-03T00:07:26.544Z,3.65
2023-05-03T00:11:28.583Z,3.90
2023-05-03T00:15:30.743Z,3.33
2023-05-03T00:19:33.718Z,3.95
2023-05-03T00:23:36.045Z,4.13
2023-05-03T00:27:38.579Z,3.28
2023-05-03T00:31:40.670Z,2.95
2023-05-03T00:35:43.444Z,4.00
2023-05-03T00:39:45.648Z,3.90
2023-05-03T00:43:47.664Z,3.03
2023-05-03T00:47:49.869Z,3.10
2023-05-03T00:51:54.520Z,3.40
2023-05-03T00:55:56.581Z,3.30
2023-05-03T00:59:59.611Z,3.50
2023-05-03T01:04:03.460Z,3.67
2023-05-03T01:08:29.352Z,3.70
2023-05-03T01:12:47.938Z,3.30
2023-05-03T01:17:02.877Z,3.78
2023-05-03T01:21:07.937Z,3.45
2023-05-03T01:25:12.442Z,3.35
2023-05-03T01:29:14.666Z,3.13
2023-05-03T01:33:40.635Z,3.97
2023-05-03T01:37:43.338Z,3.17
2023-05-03T01:41:46.301Z,3.92
2023-05-03T01:45:48.517Z,3.72
2023-05-03T01:49:50.781Z,3.53
2023-05-03T01:53:52.852Z,3.90
2023-05-03T01:57:54.874Z,3.05
2023-05-03T02:01:56.908Z,3.05
2023-05-03T02:05:59.060Z,2.65
2023-05-03T02:10:01.393Z,3.10
2023-05-03T02:14:03.650Z,3.17
2023-05-03T02:18:05.986Z,2.78
2023-05-03T02:22:08.227Z,2.88
2023-05-03T02:26:10.277Z,3.42
2023-05-03T02:30:13.021Z,2.92
2023-05-03T02:34:18.188Z,2.67
2023-05-03T02:38:20.504Z,2.83
2023-05-03T02:42:22.782Z,2.80
2023-05-03T02:46:25.029Z,3.60
2023-05-03T02:50:27.399Z,3.55
2023-05-03T02:54:29.740Z,4.80
2023-05-03T02:58:34.220Z,6.53
2023-05-03T03:02:38.407Z,6.82
2023-05-03T03:06:40.657Z,6.57
2023-05-03T03:10:42.832Z,5.25
2023-05-03T03:14:47.177Z,5.25
2023-05-03T03:18:50.052Z,5.05
2023-05-03T03:22:52.518Z,5.05
2023-05-03T03:26:54.576Z,5.15
2023-05-03T03:30:56.810Z,3.95
2023-05-03T03:35:00.608Z,4.28
2023-05-03T03:39:05.042Z,5.10
2023-05-03T03:43:10.035Z,5.07
2023-05-03T03:47:12.574Z,4.75
2023-05-03T03:51:15.158Z,5.25
2023-05-03T03:55:22.338Z,4.35
2023-05-03T03:59:27.922Z,3.78
2023-05-03T04:03:30.261Z,4.75
2023-05-03T04:07:33.608Z,3.72
2023-05-03T04:11:36.253Z,4.45
2023-05-03T04:15:39.724Z,4.43
2023-05-03T04:19:42.108Z,4.07
2023-05-03T04:23:44.619Z,3.85
2023-05-03T04:27:48.906Z,4.30
2023-05-03T04:31:52.298Z,5.07
2023-05-03T04:35:54.941Z,3.40
2023-05-03T04:39:57.259Z,3.25
2023-05-03T04:43:59.796Z,3.70
2023-05-03T04:48:05.523Z,3.22
2023-05-03T04:52:10.228Z,3.75
2023-05-03T04:56:12.848Z,3.20
2023-05-03T05:00:16.589Z,3.88
2023-05-03T05:04:24.627Z,3.55
2023-05-03T05:08:27.915Z,3.80
2023-05-03T05:12:32.152Z,3.72
2023-05-03T05:16:37.517Z,3.58
2023-05-03T05:20:40.049Z,3.88
2023-05-03T05:24:43.179Z,3.17
2023-05-03T05:28:47.820Z,4.07
2023-05-03T05:32:50.000Z,3.67
2023-05-03T05:36:52.288Z,3.42
2023-05-03T05:40:56.169Z,3.40
2023-05-03T05:44:59.332Z,3.97
2023-05-03T05:49:01.504Z,3.40
2023-05-03T05:53:03.767Z,2.78
2023-05-03T05:57:12.535Z,3.25
2023-05-03T06:01:15.034Z,2.53
2023-05-03T06:05:17.832Z,2.28
2023-05-03T06:09:24.795Z,2.25
2023-05-03T06:13:31.762Z,2.25
2023-05-03T06:17:35.089Z,1.80
2023-05-03T06:21:37.474Z,2.03
2023-05-03T06:25:39.852Z,1.92
2023-05-03T06:29:44.370Z,1.58
2023-05-03T06:33:47.098Z,1.30
2023-05-03T06:37:49.551Z,2.17
2023-05-03T06:41:51.678Z,2.28
2023-05-03T06:45:53.968Z,1.30
2023-05-03T06:49:56.212Z,1.23
2023-05-03T06:54:06.753Z,1.30
2023-05-03T06:58:11.600Z,1.52
2023-05-03T07:02:13.502Z,1.70
2023-05-03T07:06:16.859Z,1.80
2023-05-03T07:10:19.341Z,1.35
2023-05-03T07:14:21.380Z,1.80
2023-05-03T07:18:23.604Z,1.55
2023-05-03T07:22:25.838Z,2.05
2023-05-03T07:26:27.954Z,1.60
2023-05-03T07:30:29.912Z,1.92
2023-05-03T07:34:32.779Z,2.42
2023-05-03T07:38:34.946Z,1.98
2023-05-03T07:42:37.053Z,2.13
2023-05-03T07:46:39.204Z,2.10
2023-05-03T07:50:45.169Z,2.00
2023-05-03T07:54:47.194Z,2.38
2023-05-03T07:58:57.030Z,2.42
2023-05-03T08:03:07.332Z,1.83
2023-05-03T08:07:09.679Z,2.20
2023-05-03T08:11:11.932Z,1.75
2023-05-03T08:15:14.046Z,1.90
2023-05-03T08:19:16.050Z,2.08
2023-05-03T08:23:18.052Z,1.58
2023-05-03T08:27:20.092Z,1.80
2023-05-03T08:31:22.266Z,2.40
2023-05-03T08:35:24.513Z,2.05
2023-05-03T08:39:26.875Z,1.80
2023-05-03T08:43:30.551Z,2.10
2023-05-03T08:47:37.438Z,2.13
2023-05-03T08:51:47.179Z,1.92
2023-05-03T08:55:49.380Z,2.08
2023-05-03T09:00:00.562Z,1.95
2023-05-03T09:04:04.214Z,1.90
2023-05-03T09:08:09.268Z,2.90
2023-05-03T09:12:11.416Z,2.05
2023-05-03T09:16:22.550Z,2.25
2023-05-03T09:20:34.941Z,2.55
2023-05-03T09:24:37.183Z,2.42
2023-05-03T09:28:43.631Z,2.72
2023-05-03T09:32:49.565Z,2.75
2023-05-03T09:36:51.695Z,2.70
2023-05-03T09:40:53.702Z,2.25
2023-05-03T09:44:55.851Z,2.55
2023-05-03T09:48:58.344Z,2.67
2023-05-03T09:53:05.310Z,2.40
2023-05-03T09:57:08.584Z,2.63
2023-05-03T10:01:10.766Z,1.83
2023-05-03T10:05:14.114Z,1.77
2023-05-03T10:09:23.273Z,2.20
2023-05-03T10:13:25.928Z,2.22
2023-05-03T10:17:47.344Z,1.60
2023-05-03T10:22:08.241Z,1.85
2023-05-03T10:26:13.375Z,2.00
2023-05-03T10:30:28.941Z,1.80
2023-05-03T10:34:32.617Z,1.83
2023-05-03T10:38:34.608Z,2.03
2023-05-03T10:42:38.408Z,1.38
2023-05-03T10:46:43.873Z,1.60
2023-05-03T10:50:46.473Z,1.60
2023-05-03T10:54:48.534Z,1.83
2023-05-03T10:58:55.630Z,1.67
2023-05-03T11:03:19.705Z,1.70
2023-05-03T11:07:22.663Z,1.88
2023-05-03T11:11:24.746Z,1.60
2023-05-03T11:15:26.996Z,1.77
2023-05-03T11:19:29.400Z,2.53
2023-05-03T11:23:31.434Z,1.67
2023-05-03T11:27:33.421Z,1.55
2023-05-03T11:31:35.787Z,2.05
2023-05-03T11:35:38.837Z,2.13
2023-05-03T11:39:41.637Z,2.15
2023-05-03T11:43:54.957Z,1.90
2023-05-03T11:47:57.701Z,1.75
2023-05-03T11:52:00.188Z,1.83
2023-05-03T11:56:03.223Z,1.83
2023-05-03T12:00:17.936Z,2.35
2023-05-03T12:04:22.279Z,1.73
2023-05-03T12:08:32.834Z,2.00
2023-05-03T12:12:41.071Z,1.85
2023-05-03T12:16:51.383Z,1.97
2023-05-03T12:25:04.407Z,1.77
2023-05-03T12:29:07.015Z,1.77
2023-05-03T12:33:10.290Z,2.17
2023-05-03T12:37:16.757Z,2.00
2023-05-03T12:41:52.248Z,1.88
2023-05-03T12:45:44.814Z,2.05
2023-05-03T12:49:52.062Z,1.67
2023-05-03T12:53:55.601Z,1.25
2023-05-03T12:58:18.033Z,1.90
2023-05-03T13:06:26.982Z,1.75
2023-05-03T13:10:29.702Z,1.77
2023-05-03T13:14:32.201Z,1.48
2023-05-03T13:18:34.279Z,1.90
2023-05-03T13:22:36.439Z,1.90
2023-05-03T13:26:38.573Z,1.95
2023-05-03T13:30:40.660Z,1.80
2023-05-03T13:34:43.025Z,1.65
2023-05-03T13:38:45.069Z,1.70
2023-05-03T13:42:48.471Z,1.60
2023-05-03T13:46:51.124Z,1.90
2023-05-03T13:50:53.539Z,1.65
2023-05-03T13:54:55.577Z,1.52
2023-05-03T13:58:58.062Z,2.33
2023-05-03T14:03:00.289Z,1.60
2023-05-03T14:07:03.405Z,2.65
2023-05-03T14:11:06.503Z,2.00
2023-05-03T14:15:09.708Z,1.77
2023-05-03T14:19:12.312Z,1.90
2023-05-03T14:23:15.171Z,2.05
2023-05-03T14:27:20.730Z,1.75
2023-05-03T14:31:23.078Z,1.95
2023-05-03T14:35:25.207Z,1.40
2023-05-03T14:39:27.355Z,1.80
2023-05-03T14:43:29.467Z,2.35
2023-05-03T14:47:31.885Z,2.47
2023-05-03T14:51:35.098Z,1.60
2023-05-03T14:55:37.212Z,1.75
2023-05-03T14:59:39.270Z,3.38
2023-05-03T15:03:41.530Z,2.00
2023-05-03T15:07:43.668Z,2.05
2023-05-03T15:11:45.790Z,2.20
2023-05-03T15:15:48.133Z,1.90
2023-05-03T15:19:51.227Z,1.80
2023-05-03T15:23:54.331Z,1.70
2023-05-03T15:27:56.682Z,1.80
2023-05-03T15:31:58.816Z,3.28
2023-05-03T15:36:00.860Z,3.38
2023-05-03T15:40:09.502Z,2.92
2023-05-03T15:44:11.767Z,2.83
2023-05-03T15:48:13.905Z,4.45
2023-05-03T15:52:17.045Z,2.70
2023-05-03T15:56:19.148Z,2.20
2023-05-03T16:00:22.964Z,8.50
2023-05-03T16:04:25.271Z,4.55
2023-05-03T16:08:28.807Z,7.80
2023-05-03T16:12:31.097Z,8.73
2023-05-03T16:16:33.235Z,3.72
2023-05-03T16:20:35.313Z,4.38
2023-05-03T16:24:37.601Z,6.57
2023-05-03T16:28:39.778Z,4.38
2023-05-03T16:32:45.088Z,4.38
2023-05-03T16:36:47.312Z,3.28
2023-05-03T16:40:49.327Z,3.00
2023-05-03T16:44:51.397Z,2.00
2023-05-03T16:48:54.178Z,2.28
2023-05-03T16:52:56.370Z,2.55
2023-05-03T16:56:58.387Z,1.80
2023-05-03T17:01:00.532Z,2.03
2023-05-03T17:05:05.144Z,3.30
2023-05-03T17:09:07.255Z,2.38
2023-05-03T17:13:09.972Z,5.22
2023-05-03T17:17:12.250Z,2.47
2023-05-03T17:21:14.489Z,2.50
2023-05-03T17:25:17.250Z,2.15
2023-05-03T17:29:19.256Z,9.52
2023-05-03T17:33:22.974Z,8.52
2023-05-03T17:37:25.623Z,5.32
2023-05-03T17:41:29.994Z,6.20
2023-05-03T17:45:32.060Z,10.90
2023-05-03T17:49:34.188Z,14.95
2023-05-03T17:53:36.310Z,13.60
2023-05-03T17:57:39.989Z,12.18
2023-05-03T18:01:42.087Z,10.30
2023-05-03T18:05:45.533Z,7.75
2023-05-03T18:09:47.585Z,7.70
2023-05-03T18:13:49.595Z,7.43
2023-05-03T18:17:51.800Z,8.23
2023-05-03T18:21:53.966Z,9.63
2023-05-03T18:25:56.047Z,10.10
2023-05-03T18:29:58.276Z,10.57
2023-05-03T18:34:00.284Z,9.82
2023-05-03T18:38:02.436Z,9.52
2023-05-03T18:42:04.820Z,9.23
2023-05-03T18:46:07.731Z,8.73
2023-05-03T18:50:10.152Z,8.68
2023-05-03T18:54:12.357Z,9.85
2023-05-03T18:58:14.355Z,10.68
2023-05-03T19:02:16.206Z,10.77
2023-05-03T19:06:18.866Z,10.02
2023-05-03T19:10:21.012Z,10.68
2023-05-03T19:14:23.072Z,10.85
2023-05-03T19:18:25.156Z,9.15
2023-05-03T19:22:27.229Z,12.13
2023-05-03T19:26:29.494Z,32.60
2023-05-03T19:30:31.597Z,35.80
2023-05-03T19:34:35.697Z,29.65
2023-05-03T19:38:38.021Z,28.35
2023-05-03T19:42:39.986Z,49.38
2023-05-03T19:46:42.053Z,20.58
2023-05-03T19:50:44.955Z,24.92
2023-05-03T19:54:46.964Z,22.13
2023-05-03T19:58:50.773Z,23.10
2023-05-03T20:02:53.357Z,28.75
2023-05-03T20:06:55.494Z,29.50
2023-05-03T20:10:58.564Z,29.35
2023-05-03T20:15:00.796Z,27.23
2023-05-03T20:19:03.048Z,25.45
2023-05-03T20:23:05.168Z,21.92
2023-05-03T20:27:07.588Z,20.17
2023-05-03T20:31:10.961Z,19.95
2023-05-03T20:35:13.491Z,18.70
2023-05-03T20:39:15.715Z,19.10
2023-05-03T20:43:18.454Z,16.77
2023-05-03T20:47:21.003Z,15.82
2023-05-03T20:51:23.246Z,13.82
2023-05-03T20:55:25.292Z,14.13
2023-05-03T20:59:27.560Z,13.35
2023-05-03T21:03:30.090Z,13.25
2023-05-03T21:07:32.177Z,14.40
2023-05-03T21:11:34.291Z,14.50
2023-05-03T21:15:36.959Z,15.00
2023-05-03T21:19:39.764Z,15.90
2023-05-03T21:23:41.891Z,15.73
2023-05-03T21:27:44.070Z,15.73
2023-05-03T21:31:46.218Z,14.60
2023-05-03T21:35:48.294Z,13.77
2023-05-03T21:40:00.271Z,13.48
2023-05-03T21:44:03.794Z,14.07
2023-05-03T21:48:06.398Z,20.88
2023-05-03T21:52:08.647Z,20.25
2023-05-03T21:56:10.664Z,15.85
2023-05-03T22:00:17.451Z,14.70
2023-05-03T22:04:19.570Z,14.00
2023-05-03T22:08:21.773Z,15.70
2023-05-03T22:12:24.729Z,15.35
2023-05-03T22:16:27.345Z,14.45
2023-05-03T22:20:29.540Z,17.10
2023-05-03T22:24:31.550Z,19.10
2023-05-03T22:28:33.591Z,17.08
2023-05-03T22:32:35.679Z,15.95
2023-05-03T22:36:38.205Z,17.45
2023-05-03T22:40:40.313Z,17.15
2023-05-03T22:44:42.449Z,17.50
2023-05-03T22:48:44.565Z,16.77
2023-05-03T22:52:46.778Z,18.83
2023-05-03T22:56:50.017Z,16.50
2023-05-03T23:00:53.012Z,17.73
2023-05-03T23:04:55.255Z,15.18
2023-05-03T23:08:57.230Z,17.48
2023-05-03T23:12:59.431Z,16.90
2023-05-03T23:17:01.392Z,16.55
2023-05-03T23:21:04.367Z,17.90
2023-05-03T23:25:06.868Z,15.98
2023-05-03T23:29:09.502Z,17.27
2023-05-03T23:33:12.629Z,16.35
2023-05-03T23:37:15.295Z,15.98
2023-05-03T23:41:17.391Z,15.93
2023-05-03T23:45:19.566Z,15.32
2023-05-03T23:49:21.673Z,16.27
2023-05-03T23:53:23.744Z,16.52
2023-05-03T23:57:26.658Z,16.48
